sensor_id;sensor_type;location;lat;lon;timestamp;pressure;altitude;pressure_sealevel;temperature;humidity
55373;BME280;41249;47.838;16.490;2023-02-12T00:02:16;100840.25;;;1.01;62.06
55373;BME280;41249;47.838;16.490;2023-02-12T00:04:43;100823.91;;;0.96;61.15
55373;BME280;41249;47.838;16.490;2023-02-12T00:07:10;100819.16;;;1.01;61.61
55373;BME280;41249;47.838;16.490;2023-02-12T00:09:36;100830.91;;;1.02;61.76
55373;BME280;41249;47.838;16.490;2023-02-12T00:12:03;100810.44;;;0.99;61.00
55373;BME280;41249;47.838;16.490;2023-02-12T00:14:30;100823.84;;;1.01;61.86
55373;BME280;41249;47.838;16.490;2023-02-12T00:16:56;100830.09;;;1.01;61.34
55373;BME280;41249;47.838;16.490;2023-02-12T00:19:23;100831.72;;;1.02;61.34
55373;BME280;41249;47.838;16.490;2023-02-12T00:21:50;100827.91;;;1.03;61.53
55373;BME280;41249;47.838;16.490;2023-02-12T00:24:16;100829.00;;;1.02;61.25
55373;BME280;41249;47.838;16.490;2023-02-12T00:26:43;100833.38;;;1.03;61.34
55373;BME280;41249;47.838;16.490;2023-02-12T00:29:09;100840.94;;;1.06;60.95
55373;BME280;41249;47.838;16.490;2023-02-12T00:31:36;100825.09;;;1.08;61.14
55373;BME280;41249;47.838;16.490;2023-02-12T00:34:03;100829.44;;;1.09;61.18
55373;BME280;41249;47.838;16.490;2023-02-12T00:36:31;100829.72;;;1.08;61.58
55373;BME280;41249;47.838;16.490;2023-02-12T00:38:58;100831.66;;;1.07;61.45
55373;BME280;41249;47.838;16.490;2023-02-12T00:41:25;100834.38;;;1.07;61.61
55373;BME280;41249;47.838;16.490;2023-02-12T00:43:52;100842.59;;;1.07;61.66
55373;BME280;41249;47.838;16.490;2023-02-12T00:46:19;100830.31;;;1.05;60.84
55373;BME280;41249;47.838;16.490;2023-02-12T00:48:46;100830.91;;;1.02;61.11
55373;BME280;41249;47.838;16.490;2023-02-12T00:51:13;100827.91;;;1.03;60.98
55373;BME280;41249;47.838;16.490;2023-02-12T00:53:40;100825.44;;;1.02;61.18
55373;BME280;41249;47.838;16.490;2023-02-12T00:56:07;100826.03;;;0.99;61.43
55373;BME280;41249;47.838;16.490;2023-02-12T00:58:33;100836.09;;;1.03;61.38
55373;BME280;41249;47.838;16.490;2023-02-12T01:01:00;100841.03;;;1.01;61.63
55373;BME280;41249;47.838;16.490;2023-02-12T01:03:27;100840.75;;;1.03;61.29
55373;BME280;41249;47.838;16.490;2023-02-12T01:05:53;100842.66;;;1.02;61.76
55373;BME280;41249;47.838;16.490;2023-02-12T01:08:21;100840.38;;;1.09;61.41
55373;BME280;41249;47.838;16.490;2023-02-12T01:10:55;100845.91;;;1.04;62.01
55373;BME280;41249;47.838;16.490;2023-02-12T01:13:22;100843.41;;;1.08;61.75
55373;BME280;41249;47.838;16.490;2023-02-12T01:16:02;100831.13;;;1.05;62.42
55373;BME280;41249;47.838;16.490;2023-02-12T01:18:29;100842.59;;;1.07;62.14
55373;BME280;41249;47.838;16.490;2023-02-12T01:20:56;100839.28;;;1.10;62.55
55373;BME280;41249;47.838;16.490;2023-02-12T01:23:24;100843.09;;;1.09;61.85
55373;BME280;41249;47.838;16.490;2023-02-12T01:25:51;100832.66;;;1.11;62.40
55373;BME280;41249;47.838;16.490;2023-02-12T01:28:18;100832.59;;;1.16;62.47
55373;BME280;41249;47.838;16.490;2023-02-12T01:30:44;100844.34;;;1.17;62.25
55373;BME280;41249;47.838;16.490;2023-02-12T01:33:11;100842.13;;;1.19;62.31
55373;BME280;41249;47.838;16.490;2023-02-12T01:35:38;100836.47;;;1.15;62.49
55373;BME280;41249;47.838;16.490;2023-02-12T01:38:04;100845.75;;;1.14;62.95
55373;BME280;41249;47.838;16.490;2023-02-12T01:40:31;100856.09;;;1.17;62.90
55373;BME280;41249;47.838;16.490;2023-02-12T01:43:00;100866.81;;;1.14;63.08
55373;BME280;41249;47.838;16.490;2023-02-12T01:47:54;100865.06;;;1.23;63.67
55373;BME280;41249;47.838;16.490;2023-02-12T01:50:22;100870.59;;;1.18;64.53
55373;BME280;41249;47.838;16.490;2023-02-12T01:52:52;100870.53;;;1.23;63.69
55373;BME280;41249;47.838;16.490;2023-02-12T01:55:20;100870.97;;;1.30;63.46
55373;BME280;41249;47.838;16.490;2023-02-12T01:57:47;100871.78;;;1.30;64.38
55373;BME280;41249;47.838;16.490;2023-02-12T02:00:19;100866.31;;;1.30;64.27
55373;BME280;41249;47.838;16.490;2023-02-12T02:02:55;100862.66;;;1.35;63.85
55373;BME280;41249;47.838;16.490;2023-02-12T02:08:18;100863.50;;;1.35;63.53
55373;BME280;41249;47.838;16.490;2023-02-12T02:10:44;100882.09;;;1.33;63.36
55373;BME280;41249;47.838;16.490;2023-02-12T02:13:11;100875.53;;;1.34;64.41
55373;BME280;41249;47.838;16.490;2023-02-12T02:15:59;100880.19;;;1.34;64.07
55373;BME280;41249;47.838;16.490;2023-02-12T02:18:37;100870.97;;;1.30;63.89
55373;BME280;41249;47.838;16.490;2023-02-12T02:21:30;100871.31;;;1.23;66.45
55373;BME280;41249;47.838;16.490;2023-02-12T02:27:17;100873.50;;;1.08;66.46
55373;BME280;41249;47.838;16.490;2023-02-12T02:38:45;100886.41;;;1.02;66.38
55373;BME280;41249;47.838;16.490;2023-02-12T02:41:36;100885.00;;;1.05;66.92
55373;BME280;41249;47.838;16.490;2023-02-12T02:44:11;100895.66;;;1.06;65.64
55373;BME280;41249;47.838;16.490;2023-02-12T02:46:45;100902.25;;;1.05;67.26
55373;BME280;41249;47.838;16.490;2023-02-12T02:49:23;100895.94;;;1.05;66.97
55373;BME280;41249;47.838;16.490;2023-02-12T02:51:54;100894.03;;;1.05;66.13
55373;BME280;41249;47.838;16.490;2023-02-12T02:54:31;100885.59;;;1.02;66.46
55373;BME280;41249;47.838;16.490;2023-02-12T02:57:13;100889.75;;;0.99;66.18
55373;BME280;41249;47.838;16.490;2023-02-12T02:59:48;100894.09;;;1.00;66.50
55373;BME280;41249;47.838;16.490;2023-02-12T03:02:24;100889.81;;;0.94;65.90
55373;BME280;41249;47.838;16.490;2023-02-12T03:04:57;100901.25;;;0.96;66.03
55373;BME280;41249;47.838;16.490;2023-02-12T03:07:28;100912.81;;;0.93;67.11
55373;BME280;41249;47.838;16.490;2023-02-12T03:10:01;100899.94;;;0.94;66.00
55373;BME280;41249;47.838;16.490;2023-02-12T03:12:33;100905.13;;;0.95;66.37
55373;BME280;41249;47.838;16.490;2023-02-12T03:15:14;100914.41;;;0.94;67.18
55373;BME280;41249;47.838;16.490;2023-02-12T03:17:45;100901.56;;;0.95;66.56
55373;BME280;41249;47.838;16.490;2023-02-12T03:20:19;100904.31;;;0.95;66.99
55373;BME280;41249;47.838;16.490;2023-02-12T03:23:22;100914.94;;;0.96;66.71
55373;BME280;41249;47.838;16.490;2023-02-12T03:25:54;100923.44;;;0.95;67.64
55373;BME280;41249;47.838;16.490;2023-02-12T03:28:29;100928.31;;;0.98;66.36
55373;BME280;41249;47.838;16.490;2023-02-12T03:31:10;100937.34;;;0.98;67.49
55373;BME280;41249;47.838;16.490;2023-02-12T03:39:12;100941.31;;;0.87;66.74
55373;BME280;41249;47.838;16.490;2023-02-12T03:41:44;100943.47;;;0.90;67.19
55373;BME280;41249;47.838;16.490;2023-02-12T03:47:03;100957.72;;;0.87;67.69
55373;BME280;41249;47.838;16.490;2023-02-12T03:49:41;100948.69;;;0.87;67.60
55373;BME280;41249;47.838;16.490;2023-02-12T03:52:11;100955.53;;;0.84;69.48
55373;BME280;41249;47.838;16.490;2023-02-12T03:54:38;100948.69;;;0.87;68.91
55373;BME280;41249;47.838;16.490;2023-02-12T03:57:12;100972.47;;;0.86;70.07
55373;BME280;41249;47.838;16.490;2023-02-12T03:59:40;100969.25;;;0.79;68.15
55373;BME280;41249;47.838;16.490;2023-02-12T04:02:08;100969.50;;;0.82;68.64
55373;BME280;41249;47.838;16.490;2023-02-12T04:04:35;100985.91;;;0.82;68.01
55373;BME280;41249;47.838;16.490;2023-02-12T04:07:02;100987.31;;;0.80;69.13
55373;BME280;41249;47.838;16.490;2023-02-12T04:09:30;100984.06;;;0.78;68.26
55373;BME280;41249;47.838;16.490;2023-02-12T04:17:49;101008.34;;;0.79;68.84
55373;BME280;41249;47.838;16.490;2023-02-12T04:28:51;100996.06;;;0.77;69.76
55373;BME280;41249;47.838;16.490;2023-02-12T04:31:30;100993.91;;;0.74;69.11
55373;BME280;41249;47.838;16.490;2023-02-12T04:34:19;100988.44;;;0.74;70.20
55373;BME280;41249;47.838;16.490;2023-02-12T04:36:57;100995.31;;;0.71;69.26
55373;BME280;41249;47.838;16.490;2023-02-12T04:39:27;100996.72;;;0.69;69.26
55373;BME280;41249;47.838;16.490;2023-02-12T04:41:58;100998.94;;;0.67;69.65
55373;BME280;41249;47.838;16.490;2023-02-12T04:44:28;101016.41;;;0.66;70.25
55373;BME280;41249;47.838;16.490;2023-02-12T04:46:55;101019.81;;;0.58;70.69
55373;BME280;41249;47.838;16.490;2023-02-12T04:49:22;101032.41;;;0.54;70.63
55373;BME280;41249;47.838;16.490;2023-02-12T04:51:50;101026.16;;;0.53;70.21
55373;BME280;41249;47.838;16.490;2023-02-12T04:54:18;101022.28;;;0.54;70.07
55373;BME280;41249;47.838;16.490;2023-02-12T04:56:46;101032.44;;;0.49;70.43
55373;BME280;41249;47.838;16.490;2023-02-12T04:59:13;101031.09;;;0.46;69.76
55373;BME280;41249;47.838;16.490;2023-02-12T05:01:41;101027.63;;;0.41;70.15
55373;BME280;41249;47.838;16.490;2023-02-12T05:04:11;101043.00;;;0.32;69.90
55373;BME280;41249;47.838;16.490;2023-02-12T05:06:38;101050.47;;;0.21;70.01
55373;BME280;41249;47.838;16.490;2023-02-12T05:09:06;101049.75;;;0.10;70.17
55373;BME280;41249;47.838;16.490;2023-02-12T05:11:33;101043.00;;;0.03;71.11
55373;BME280;41249;47.838;16.490;2023-02-12T05:13:59;101040.56;;;-0.04;71.20
55373;BME280;41249;47.838;16.490;2023-02-12T05:16:26;101040.38;;;-0.12;71.27
55373;BME280;41249;47.838;16.490;2023-02-12T05:18:52;101049.91;;;-0.10;71.32
55373;BME280;41249;47.838;16.490;2023-02-12T05:21:19;101061.69;;;-0.14;72.25
55373;BME280;41249;47.838;16.490;2023-02-12T05:23:45;101067.91;;;-0.09;71.80
55373;BME280;41249;47.838;16.490;2023-02-12T05:26:15;101075.53;;;-0.06;72.28
55373;BME280;41249;47.838;16.490;2023-02-12T05:28:42;101077.22;;;-0.10;71.21
55373;BME280;41249;47.838;16.490;2023-02-12T05:31:15;101073.34;;;-0.09;71.98
55373;BME280;41249;47.838;16.490;2023-02-12T05:33:47;101052.78;;;0.04;72.25
55373;BME280;41249;47.838;16.490;2023-02-12T05:36:17;101053.56;;;0.09;72.39
55373;BME280;41249;47.838;16.490;2023-02-12T05:38:44;101067.19;;;0.14;72.41
55373;BME280;41249;47.838;16.490;2023-02-12T05:41:17;101067.44;;;0.18;72.74
55373;BME280;41249;47.838;16.490;2023-02-12T05:43:44;101077.72;;;0.26;72.18
55373;BME280;41249;47.838;16.490;2023-02-12T05:46:15;101074.22;;;0.26;71.51
55373;BME280;41249;47.838;16.490;2023-02-12T05:48:42;101090.25;;;0.32;71.51
55373;BME280;41249;47.838;16.490;2023-02-12T05:51:12;101083.41;;;0.35;71.05
55373;BME280;41249;47.838;16.490;2023-02-12T05:53:40;101087.78;;;0.36;71.15
55373;BME280;41249;47.838;16.490;2023-02-12T05:56:14;101097.03;;;0.40;70.68
55373;BME280;41249;47.838;16.490;2023-02-12T05:58:43;101090.47;;;0.41;71.23
55373;BME280;41249;47.838;16.490;2023-02-12T06:01:16;101086.41;;;0.38;71.93
55373;BME280;41249;47.838;16.490;2023-02-12T06:03:43;101107.38;;;0.43;72.27
55373;BME280;41249;47.838;16.490;2023-02-12T06:06:10;101098.66;;;0.41;72.00
55373;BME280;41249;47.838;16.490;2023-02-12T06:08:37;101099.47;;;0.41;71.56
55373;BME280;41249;47.838;16.490;2023-02-12T06:11:07;101100.84;;;0.39;71.51
55373;BME280;41249;47.838;16.490;2023-02-12T06:13:34;101113.41;;;0.40;71.56
55373;BME280;41249;47.838;16.490;2023-02-12T06:16:01;101102.22;;;0.36;71.44
55373;BME280;41249;47.838;16.490;2023-02-12T06:18:28;101110.44;;;0.36;71.23
55373;BME280;41249;47.838;16.490;2023-02-12T06:20:55;101098.97;;;0.34;71.67
55373;BME280;41249;47.838;16.490;2023-02-12T06:23:23;101108.50;;;0.37;72.08
55373;BME280;41249;47.838;16.490;2023-02-12T06:25:53;101117.22;;;0.39;71.18
55373;BME280;41249;47.838;16.490;2023-02-12T06:28:21;101123.81;;;0.38;71.33
55373;BME280;41249;47.838;16.490;2023-02-12T06:30:48;101127.06;;;0.40;72.19
55373;BME280;41249;47.838;16.490;2023-02-12T06:33:15;101128.72;;;0.41;71.71
55373;BME280;41249;47.838;16.490;2023-02-12T06:35:41;101122.09;;;0.47;71.21
55373;BME280;41249;47.838;16.490;2023-02-12T06:38:08;101121.81;;;0.48;70.93
55373;BME280;41249;47.838;16.490;2023-02-12T06:40:34;101128.63;;;0.51;70.88
55373;BME280;41249;47.838;16.490;2023-02-12T06:43:01;101143.88;;;0.57;71.05
55373;BME280;41249;47.838;16.490;2023-02-12T06:45:28;101140.09;;;0.53;71.05
55373;BME280;41249;47.838;16.490;2023-02-12T06:47:54;101148.81;;;0.55;71.57
55373;BME280;41249;47.838;16.490;2023-02-12T06:50:21;101142.78;;;0.58;71.75
55373;BME280;41249;47.838;16.490;2023-02-12T06:52:47;101128.59;;;0.56;70.85
55373;BME280;41249;47.838;16.490;2023-02-12T06:55:14;101160.09;;;0.77;71.00
55373;BME280;41249;47.838;16.490;2023-02-12T06:57:42;101149.69;;;0.79;71.05
55373;BME280;41249;47.838;16.490;2023-02-12T07:00:09;101144.16;;;0.84;70.89
55373;BME280;41249;47.838;16.490;2023-02-12T07:02:35;101145.84;;;0.80;70.99
55373;BME280;41249;47.838;16.490;2023-02-12T07:05:04;101159.22;;;0.81;70.58
55373;BME280;41249;47.838;16.490;2023-02-12T07:07:32;101149.41;;;0.80;71.03
55373;BME280;41249;47.838;16.490;2023-02-12T07:09:58;101157.34;;;0.77;71.31
55373;BME280;41249;47.838;16.490;2023-02-12T07:12:25;101151.25;;;0.90;71.36
55373;BME280;41249;47.838;16.490;2023-02-12T07:14:51;101144.03;;;0.99;71.18
55373;BME280;41249;47.838;16.490;2023-02-12T07:17:18;101141.72;;;1.11;70.62
55373;BME280;41249;47.838;16.490;2023-02-12T07:19:45;101144.91;;;1.18;70.16
55373;BME280;41249;47.838;16.490;2023-02-12T07:22:11;101152.97;;;1.33;69.94
55373;BME280;41249;47.838;16.490;2023-02-12T07:24:38;101137.19;;;1.49;69.61
55373;BME280;41249;47.838;16.490;2023-02-12T07:27:04;101132.84;;;1.67;68.72
55373;BME280;41249;47.838;16.490;2023-02-12T07:29:31;101137.63;;;1.80;69.00
55373;BME280;41249;47.838;16.490;2023-02-12T07:31:58;101134.28;;;1.83;68.39
55373;BME280;41249;47.838;16.490;2023-02-12T07:34:24;101122.78;;;1.81;68.24
55373;BME280;41249;47.838;16.490;2023-02-12T07:36:51;101136.22;;;1.82;68.23
55373;BME280;41249;47.838;16.490;2023-02-12T07:39:17;101123.16;;;1.74;68.31
55373;BME280;41249;47.838;16.490;2023-02-12T07:41:44;101137.81;;;1.65;68.29
55373;BME280;41249;47.838;16.490;2023-02-12T07:44:11;101142.66;;;1.73;68.80
55373;BME280;41249;47.838;16.490;2023-02-12T07:46:39;101151.69;;;1.92;69.04
55373;BME280;41249;47.838;16.490;2023-02-12T07:49:09;101175.38;;;1.83;68.70
55373;BME280;41249;47.838;16.490;2023-02-12T07:51:37;101184.81;;;1.72;69.06
55373;BME280;41249;47.838;16.490;2023-02-12T07:54:04;101188.06;;;1.74;69.10
55373;BME280;41249;47.838;16.490;2023-02-12T07:56:33;101194.69;;;1.91;68.61
55373;BME280;41249;47.838;16.490;2023-02-12T07:59:12;101198.16;;;1.97;69.25
55373;BME280;41249;47.838;16.490;2023-02-12T08:01:48;101202.03;;;2.14;69.22
55373;BME280;41249;47.838;16.490;2023-02-12T08:04:17;101208.28;;;2.20;68.98
55373;BME280;41249;47.838;16.490;2023-02-12T08:06:46;101208.03;;;2.17;68.38
55373;BME280;41249;47.838;16.490;2023-02-12T08:09:16;101206.69;;;2.14;69.01
55373;BME280;41249;47.838;16.490;2023-02-12T08:11:44;101202.19;;;2.23;69.06
55373;BME280;41249;47.838;16.490;2023-02-12T08:14:13;101212.69;;;2.16;68.07
55373;BME280;41249;47.838;16.490;2023-02-12T08:16:41;101212.41;;;2.18;67.79
55373;BME280;41249;47.838;16.490;2023-02-12T08:19:08;101209.88;;;2.21;68.04
55373;BME280;41249;47.838;16.490;2023-02-12T08:21:50;101207.59;;;2.28;67.60
55373;BME280;41249;47.838;16.490;2023-02-12T08:24:17;101211.81;;;2.39;67.55
55373;BME280;41249;47.838;16.490;2023-02-12T08:26:44;101207.22;;;2.35;67.01
55373;BME280;41249;47.838;16.490;2023-02-12T08:29:14;101213.00;;;2.33;66.92
55373;BME280;41249;47.838;16.490;2023-02-12T08:31:43;101213.81;;;2.34;67.08
55373;BME280;41249;47.838;16.490;2023-02-12T08:34:25;101222.34;;;2.32;66.93
55373;BME280;41249;47.838;16.490;2023-02-12T08:36:53;101224.56;;;2.30;66.88
55373;BME280;41249;47.838;16.490;2023-02-12T08:39:20;101225.22;;;2.22;67.20
55373;BME280;41249;47.838;16.490;2023-02-12T08:41:47;101225.22;;;2.22;67.39
55373;BME280;41249;47.838;16.490;2023-02-12T08:44:15;101230.19;;;2.20;67.22
55373;BME280;41249;47.838;16.490;2023-02-12T08:46:45;101241.72;;;2.17;67.31
55373;BME280;41249;47.838;16.490;2023-02-12T08:49:26;101239.06;;;2.12;67.38
55373;BME280;41249;47.838;16.490;2023-02-12T08:51:55;101236.69;;;2.24;67.09
55373;BME280;41249;47.838;16.490;2023-02-12T08:54:24;101241.16;;;2.39;66.65
55373;BME280;41249;47.838;16.490;2023-02-12T08:56:55;101257.63;;;2.57;66.19
55373;BME280;41249;47.838;16.490;2023-02-12T08:59:23;101255.81;;;2.66;65.99
55373;BME280;41249;47.838;16.490;2023-02-12T09:01:50;101258.13;;;2.59;65.67
55373;BME280;41249;47.838;16.490;2023-02-12T09:04:25;101266.84;;;2.61;65.82
55373;BME280;41249;47.838;16.490;2023-02-12T09:06:52;101268.88;;;2.74;65.81
55373;BME280;41249;47.838;16.490;2023-02-12T09:09:20;101273.94;;;3.00;64.87
55373;BME280;41249;47.838;16.490;2023-02-12T09:11:47;101282.34;;;3.22;65.16
55373;BME280;41249;47.838;16.490;2023-02-12T09:14:16;101276.50;;;3.28;64.78
55373;BME280;41249;47.838;16.490;2023-02-12T09:16:42;101263.03;;;3.73;63.97
55373;BME280;41249;47.838;16.490;2023-02-12T09:19:11;101264.97;;;4.13;62.91
55373;BME280;41249;47.838;16.490;2023-02-12T09:21:38;101271.47;;;4.44;61.88
55373;BME280;41249;47.838;16.490;2023-02-12T09:24:05;101271.66;;;4.70;61.40
55373;BME280;41249;47.838;16.490;2023-02-12T09:26:32;101277.72;;;4.94;60.17
55373;BME280;41249;47.838;16.490;2023-02-12T09:29:01;101275.50;;;5.18;57.58
55373;BME280;41249;47.838;16.490;2023-02-12T09:31:29;101274.47;;;5.37;58.91
55373;BME280;41249;47.838;16.490;2023-02-12T09:33:59;101275.13;;;5.42;57.18
55373;BME280;41249;47.838;16.490;2023-02-12T09:36:26;101263.81;;;5.44;57.97
55373;BME280;41249;47.838;16.490;2023-02-12T09:38:53;101274.88;;;5.83;56.20
55373;BME280;41249;47.838;16.490;2023-02-12T09:41:42;101287.38;;;5.89;57.11
55373;BME280;41249;47.838;16.490;2023-02-12T09:44:42;101275.69;;;5.92;56.32
55373;BME280;41249;47.838;16.490;2023-02-12T09:52:40;101288.75;;;5.69;57.06
55373;BME280;41249;47.838;16.490;2023-02-12T09:55:13;101293.78;;;5.45;57.63
55373;BME280;41249;47.838;16.490;2023-02-12T09:57:41;101300.72;;;5.34;57.07
55373;BME280;41249;47.838;16.490;2023-02-12T10:00:12;101302.97;;;5.32;57.66
55373;BME280;41249;47.838;16.490;2023-02-12T10:02:40;101309.03;;;5.20;57.80
55373;BME280;41249;47.838;16.490;2023-02-12T10:05:16;101316.03;;;5.26;57.19
55373;BME280;41249;47.838;16.490;2023-02-12T10:16:53;101312.59;;;5.43;56.08
55373;BME280;41249;47.838;16.490;2023-02-12T10:25:29;101320.16;;;5.15;56.32
55373;BME280;41249;47.838;16.490;2023-02-12T10:28:08;101308.91;;;4.90;56.71
55373;BME280;41249;47.838;16.490;2023-02-12T10:30:44;101307.81;;;4.41;57.85
55373;BME280;41249;47.838;16.490;2023-02-12T10:33:24;101313.03;;;4.16;59.14
55373;BME280;41249;47.838;16.490;2023-02-12T10:36:03;101307.84;;;3.87;59.77
55373;BME280;41249;47.838;16.490;2023-02-12T10:38:38;101307.00;;;3.73;60.02
55373;BME280;41249;47.838;16.490;2023-02-12T10:41:10;101308.59;;;3.60;60.44
55373;BME280;41249;47.838;16.490;2023-02-12T10:43:38;101319.16;;;3.53;60.69
55373;BME280;41249;47.838;16.490;2023-02-12T10:46:05;101312.47;;;3.59;61.11
55373;BME280;41249;47.838;16.490;2023-02-12T10:48:35;101312.47;;;3.59;61.45
55373;BME280;41249;47.838;16.490;2023-02-12T10:53:36;101311.16;;;3.57;60.52
55373;BME280;41249;47.838;16.490;2023-02-12T10:58:34;101300.69;;;3.72;59.64
55373;BME280;41249;47.838;16.490;2023-02-12T11:01:01;101293.47;;;3.76;59.91
55373;BME280;41249;47.838;16.490;2023-02-12T11:03:31;101292.38;;;3.77;60.46
55373;BME280;41249;47.838;16.490;2023-02-12T11:06:21;101304.97;;;3.65;60.49
55373;BME280;41249;47.838;16.490;2023-02-12T11:08:49;101312.19;;;3.88;59.89
55373;BME280;41249;47.838;16.490;2023-02-12T11:14:17;101294.78;;;4.47;57.64
55373;BME280;41249;47.838;16.490;2023-02-12T11:16:56;101293.53;;;4.89;56.62
55373;BME280;41249;47.838;16.490;2023-02-12T11:19:26;101295.41;;;4.80;56.96
55373;BME280;41249;47.838;16.490;2023-02-12T11:22:09;101288.59;;;4.77;56.20
55373;BME280;41249;47.838;16.490;2023-02-12T11:24:36;101305.25;;;4.94;56.08
55373;BME280;41249;47.838;16.490;2023-02-12T11:27:20;101293.81;;;4.87;56.37
55373;BME280;41249;47.838;16.490;2023-02-12T11:30:06;101300.00;;;4.70;57.72
55373;BME280;41249;47.838;16.490;2023-02-12T11:32:37;101299.47;;;4.33;58.58
55373;BME280;41249;47.838;16.490;2023-02-12T11:35:18;101285.28;;;4.53;57.57
55373;BME280;41249;47.838;16.490;2023-02-12T11:37:55;101276.06;;;4.08;57.73
55373;BME280;41249;47.838;16.490;2023-02-12T11:40:24;101285.75;;;3.78;58.59
55373;BME280;41249;47.838;16.490;2023-02-12T11:42:56;101291.44;;;4.23;58.03
55373;BME280;41249;47.838;16.490;2023-02-12T11:45:48;101284.19;;;4.76;56.77
55373;BME280;41249;47.838;16.490;2023-02-12T11:48:18;101286.59;;;4.91;56.14
55373;BME280;41249;47.838;16.490;2023-02-12T11:50:48;101304.72;;;4.92;55.79
55373;BME280;41249;47.838;16.490;2023-02-12T11:53:39;101293.88;;;4.73;55.37
55373;BME280;41249;47.838;16.490;2023-02-12T11:56:10;101283.16;;;5.08;54.88
55373;BME280;41249;47.838;16.490;2023-02-12T11:58:38;101284.19;;;5.12;55.65
55373;BME280;41249;47.838;16.490;2023-02-12T12:01:11;101289.13;;;5.23;54.87
55373;BME280;41249;47.838;16.490;2023-02-12T12:04:01;101298.06;;;5.07;54.73
55373;BME280;41249;47.838;16.490;2023-02-12T12:11:45;101289.72;;;4.27;56.75
55373;BME280;41249;47.838;16.490;2023-02-12T12:14:23;101281.13;;;4.78;56.26
55373;BME280;41249;47.838;16.490;2023-02-12T12:17:03;101281.38;;;5.25;55.40
55373;BME280;41249;47.838;16.490;2023-02-12T12:20:11;101281.59;;;4.93;54.82
55373;BME280;41249;47.838;16.490;2023-02-12T12:25:23;101271.19;;;5.34;54.61
55373;BME280;41249;47.838;16.490;2023-02-12T12:28:03;101280.41;;;5.08;54.37
55373;BME280;41249;47.838;16.490;2023-02-12T12:33:47;101260.78;;;4.65;55.37
55373;BME280;41249;47.838;16.490;2023-02-12T12:53:26;101262.44;;;4.03;57.20
55373;BME280;41249;47.838;16.490;2023-02-12T12:56:09;101263.94;;;4.23;57.47
55373;BME280;41249;47.838;16.490;2023-02-12T13:02:13;101252.09;;;4.49;56.67
55373;BME280;41249;47.838;16.490;2023-02-12T13:10:49;101274.13;;;3.95;58.20
55373;BME280;41249;47.838;16.490;2023-02-12T13:13:34;101264.91;;;4.04;57.83
55373;BME280;41249;47.838;16.490;2023-02-12T13:16:29;101269.75;;;4.07;56.89
55373;BME280;41249;47.838;16.490;2023-02-12T13:26:57;101276.28;;;4.12;57.35
55373;BME280;41249;47.838;16.490;2023-02-12T13:29:37;101262.31;;;4.22;56.50
55373;BME280;41249;47.838;16.490;2023-02-12T13:34:44;101257.78;;;4.53;56.66
55373;BME280;41249;47.838;16.490;2023-02-12T13:37:18;101263.94;;;4.72;56.01
55373;BME280;41249;47.838;16.490;2023-02-12T13:39:46;101273.91;;;5.04;55.44
55373;BME280;41249;47.838;16.490;2023-02-12T13:48:03;101268.75;;;4.89;54.93
55373;BME280;41249;47.838;16.490;2023-02-12T13:50:46;101258.31;;;4.77;55.37
55373;BME280;41249;47.838;16.490;2023-02-12T13:53:56;101260.28;;;4.63;55.70
55373;BME280;41249;47.838;16.490;2023-02-12T13:56:26;101258.50;;;4.45;55.51
55373;BME280;41249;47.838;16.490;2023-02-12T13:58:54;101266.13;;;4.48;55.60
55373;BME280;41249;47.838;16.490;2023-02-12T14:01:41;101264.78;;;4.59;54.87
55373;BME280;41249;47.838;16.490;2023-02-12T14:04:33;101255.81;;;4.67;55.31
55373;BME280;41249;47.838;16.490;2023-02-12T14:07:05;101258.47;;;4.58;55.68
55373;BME280;41249;47.838;16.490;2023-02-12T14:12:30;101251.38;;;4.44;56.66
55373;BME280;41249;47.838;16.490;2023-02-12T14:15:09;101256.38;;;4.42;56.64
55373;BME280;41249;47.838;16.490;2023-02-12T14:30:30;101268.94;;;4.21;58.52
55373;BME280;41249;47.838;16.490;2023-02-12T14:33:20;101268.53;;;4.14;58.00
55373;BME280;41249;47.838;16.490;2023-02-12T14:35:45;101261.94;;;4.15;57.31
55373;BME280;41249;47.838;16.490;2023-02-12T14:40:44;101264.16;;;4.13;57.42
55373;BME280;41249;47.838;16.490;2023-02-12T14:43:34;101259.59;;;3.94;58.25
55373;BME280;41249;47.838;16.490;2023-02-12T14:54:04;101286.03;;;3.63;59.01
55373;BME280;41249;47.838;16.490;2023-02-12T14:56:45;101286.22;;;3.53;59.18
55373;BME280;41249;47.838;16.490;2023-02-12T14:59:18;101292.66;;;3.62;59.69
55373;BME280;41249;47.838;16.490;2023-02-12T15:01:47;101288.59;;;3.60;59.30
55373;BME280;41249;47.838;16.490;2023-02-12T15:04:20;101290.78;;;3.58;59.59
55373;BME280;41249;47.838;16.490;2023-02-12T15:06:54;101289.47;;;3.55;59.51
55373;BME280;41249;47.838;16.490;2023-02-12T15:09:30;101291.09;;;3.56;59.53
55373;BME280;41249;47.838;16.490;2023-02-12T15:12:16;101280.13;;;3.56;59.79
55373;BME280;41249;47.838;16.490;2023-02-12T15:14:52;101283.13;;;3.41;60.42
55373;BME280;41249;47.838;16.490;2023-02-12T15:17:27;101284.88;;;3.37;59.42
55373;BME280;41249;47.838;16.490;2023-02-12T15:19:59;101278.88;;;3.35;60.18
55373;BME280;41249;47.838;16.490;2023-02-12T15:22:34;101281.06;;;3.33;60.58
55373;BME280;41249;47.838;16.490;2023-02-12T15:25:27;101283.97;;;3.23;61.21
55373;BME280;41249;47.838;16.490;2023-02-12T15:27:58;101285.78;;;3.14;61.16
55373;BME280;41249;47.838;16.490;2023-02-12T15:30:28;101288.78;;;2.99;61.59
55373;BME280;41249;47.838;16.490;2023-02-12T15:32:59;101292.34;;;2.99;61.28
55373;BME280;41249;47.838;16.490;2023-02-12T15:35:44;101288.47;;;3.00;61.67
55373;BME280;41249;47.838;16.490;2023-02-12T15:38:20;101286.69;;;2.91;61.38
55373;BME280;41249;47.838;16.490;2023-02-12T15:40:56;101281.84;;;2.88;61.31
55373;BME280;41249;47.838;16.490;2023-02-12T15:43:28;101279.38;;;2.86;61.67